Virgil, Illinois
Current Conditions -  °F | °C
As of 4:35 AM on Saturday 22 Nov 2014 (Local Time) from KDKB Reporting Station
Haze Haze  
Wind Chill: 23°   Ceiling: 200
Heat Index: 32°   Visibility: 1mi
Dew Point: 31°   Wind: 12mph
Humidity: 97%   Direction: 200°SSW
Pressure: 30.05"   Gusts: NA
Location:  41.96°N, 88.54°W
Report Text: KDKB 221035Z AUTO 20010KT 1SM BR OVC002 00/00 A3005 RMK AO2 P0001 T00001004
Loading
Personal Weather Stations






























Interactive Weather Map New forecast layout! Learn more

10-Day Weather Forecast

Advertisements
Track Severe Weather on mobile